createdAt,value
2019-02-23T00:00:18.399Z,18.48
2019-02-23T00:01:20.323Z,18.48
2019-02-23T00:02:18.378Z,18.48
2019-02-23T00:03:18.752Z,18.47
2019-02-23T00:04:18.499Z,18.48
2019-02-23T00:05:18.805Z,18.47
2019-02-23T00:06:30.422Z,18.46
2019-02-23T00:07:18.985Z,18.46
2019-02-23T00:08:18.405Z,18.45
2019-02-23T00:09:18.678Z,18.46
2019-02-23T00:10:19.318Z,18.44
2019-02-23T00:11:19.005Z,18.43
2019-02-23T00:12:18.524Z,18.43
2019-02-23T00:13:18.697Z,18.43
2019-02-23T00:14:18.378Z,18.42
2019-02-23T00:15:18.446Z,18.41
2019-02-23T00:16:20.372Z,18.41
2019-02-23T00:17:18.835Z,18.41
2019-02-23T00:18:18.777Z,18.41
2019-02-23T00:19:25.464Z,18.41
2019-02-23T00:20:18.414Z,18.41
2019-02-23T00:21:18.706Z,18.4
2019-02-23T00:22:18.779Z,18.4
2019-02-23T00:23:18.923Z,18.39
2019-02-23T00:24:18.989Z,18.38
2019-02-23T00:25:18.691Z,18.38
2019-02-23T00:26:18.324Z,18.38
2019-02-23T00:27:18.813Z,18.38
2019-02-23T00:28:18.756Z,18.36
2019-02-23T00:29:18.749Z,18.36
2019-02-23T00:30:18.725Z,18.36
2019-02-23T00:31:18.457Z,18.35
2019-02-23T00:32:19.126Z,18.36
2019-02-23T00:33:19.691Z,18.35
2019-02-23T00:34:19.232Z,18.35
2019-02-23T00:35:19.097Z,18.34
2019-02-23T00:36:18.910Z,18.34
2019-02-23T00:37:18.798Z,18.33
2019-02-23T00:38:18.314Z,18.33
2019-02-23T00:39:18.152Z,18.33
2019-02-23T00:40:18.299Z,18.33
2019-02-23T00:41:18.610Z,18.31
2019-02-23T00:42:18.619Z,18.31
2019-02-23T00:43:18.724Z,18.3
2019-02-23T00:44:19.154Z,18.3
2019-02-23T00:45:18.326Z,18.3
2019-02-23T00:46:18.766Z,18.29
2019-02-23T00:47:18.432Z,18.29
2019-02-23T00:48:18.308Z,18.29
2019-02-23T00:49:18.790Z,18.29
2019-02-23T00:50:18.775Z,18.29
2019-02-23T00:51:18.584Z,18.29
2019-02-23T00:52:18.783Z,18.28
2019-02-23T00:53:18.392Z,18.28
2019-02-23T00:54:19.314Z,18.27
2019-02-23T00:55:18.658Z,18.27
2019-02-23T00:56:18.517Z,18.26
2019-02-23T00:57:18.712Z,18.26
2019-02-23T00:58:19.033Z,18.26
2019-02-23T00:59:18.748Z,18.25
2019-02-23T01:00:18.686Z,18.24
2019-02-23T01:01:18.394Z,18.24
2019-02-23T01:02:18.371Z,18.24
2019-02-23T01:03:18.679Z,18.24
2019-02-23T01:04:18.775Z,18.23
2019-02-23T01:05:18.265Z,18.23
2019-02-23T01:06:20.213Z,18.23
2019-02-23T01:07:18.986Z,18.23
2019-02-23T01:08:18.806Z,18.23
2019-02-23T01:09:18.279Z,18.23
2019-02-23T01:10:19.875Z,18.21
2019-02-23T01:11:18.403Z,18.21
2019-02-23T01:12:18.528Z,18.21
2019-02-23T01:13:18.427Z,18.21
2019-02-23T01:14:18.535Z,18.2
2019-02-23T01:15:19.333Z,18.2
2019-02-23T01:16:19.081Z,18.19
2019-02-23T01:17:18.328Z,18.2
2019-02-23T01:18:18.875Z,18.19
2019-02-23T01:19:18.583Z,18.19
2019-02-23T01:20:18.776Z,18.18
2019-02-23T01:21:18.814Z,18.18
2019-02-23T01:22:18.517Z,18.18
2019-02-23T01:23:20.541Z,18.18
2019-02-23T01:24:18.786Z,18.17
2019-02-23T01:25:18.690Z,18.17
2019-02-23T01:26:18.726Z,18.17
2019-02-23T01:27:18.921Z,18.17
2019-02-23T01:28:18.234Z,18.17
2019-02-23T01:29:18.446Z,18.17
2019-02-23T01:30:18.744Z,18.16
2019-02-23T01:31:18.754Z,18.17
2019-02-23T01:32:18.666Z,18.16
2019-02-23T01:33:18.966Z,18.15
2019-02-23T01:34:18.741Z,18.15
2019-02-23T01:35:18.772Z,18.14
2019-02-23T01:36:18.489Z,18.14
2019-02-23T01:37:19.024Z,18.14
2019-02-23T01:38:20.326Z,18.13
2019-02-23T01:39:18.225Z,18.13
2019-02-23T01:40:18.742Z,18.12
2019-02-23T01:41:18.708Z,18.12
2019-02-23T01:42:18.218Z,18.12
2019-02-23T01:43:18.769Z,18.12
2019-02-23T01:44:18.378Z,18.11
2019-02-23T01:45:18.327Z,18.11
2019-02-23T01:46:18.648Z,18.11
2019-02-23T01:47:18.782Z,18.11
2019-02-23T01:48:18.445Z,18.11
2019-02-23T01:49:18.413Z,18.1
2019-02-23T01:50:18.478Z,18.1
2019-02-23T01:51:18.317Z,18.1
2019-02-23T01:52:18.367Z,18.1
2019-02-23T01:53:20.348Z,18.1
2019-02-23T01:54:18.415Z,18.1
2019-02-23T01:55:18.399Z,18.1
2019-02-23T01:56:18.494Z,18.1
2019-02-23T01:57:19.262Z,18.09
2019-02-23T01:58:19.362Z,18.09
2019-02-23T01:59:18.781Z,18.08
2019-02-23T02:00:18.412Z,18.08
2019-02-23T02:01:18.692Z,18.07
2019-02-23T02:02:18.212Z,18.08
2019-02-23T02:03:20.254Z,18.06
2019-02-23T02:04:18.887Z,18.07
2019-02-23T02:05:18.594Z,18.06
2019-02-23T02:06:18.399Z,18.06
2019-02-23T02:07:18.806Z,18.06
2019-02-23T02:08:18.339Z,18.06
2019-02-23T02:09:19.361Z,18.05
2019-02-23T02:10:19.178Z,18.05
2019-02-23T02:11:18.437Z,18.05
2019-02-23T02:12:18.424Z,18.06
2019-02-23T02:13:18.813Z,18.05
2019-02-23T02:14:18.762Z,18.05
2019-02-23T02:15:18.840Z,18.04
2019-02-23T02:16:19.181Z,18.05
2019-02-23T02:17:18.382Z,18.04
2019-02-23T02:18:18.659Z,18.04
2019-02-23T02:19:18.786Z,18.04
2019-02-23T02:20:19.027Z,18.03
2019-02-23T02:21:18.714Z,18.03
2019-02-23T02:22:18.407Z,18.02
2019-02-23T02:23:18.529Z,18.02
2019-02-23T02:24:18.831Z,18.02
2019-02-23T02:25:19.027Z,18.02
2019-02-23T02:26:18.531Z,18.02
2019-02-23T02:27:18.864Z,18.02
2019-02-23T02:28:18.731Z,18.02
2019-02-23T02:29:18.759Z,18.02
2019-02-23T02:30:18.789Z,18.01
2019-02-23T02:31:18.594Z,18
2019-02-23T02:32:20.256Z,17.99
2019-02-23T02:33:18.361Z,17.99
2019-02-23T02:34:18.534Z,18
2019-02-23T02:35:18.843Z,18
2019-02-23T02:36:18.522Z,18
2019-02-23T02:37:18.280Z,17.98
2019-02-23T02:38:18.919Z,17.98
2019-02-23T02:39:18.526Z,17.97
2019-02-23T02:40:18.680Z,17.98
2019-02-23T02:41:18.986Z,17.98
2019-02-23T02:42:18.916Z,17.97
2019-02-23T02:43:18.355Z,17.98
2019-02-23T02:44:18.792Z,17.97
2019-02-23T02:45:18.290Z,17.96
2019-02-23T02:46:18.471Z,17.96
2019-02-23T02:47:19.672Z,17.96
2019-02-23T02:48:18.484Z,17.96
2019-02-23T02:49:18.960Z,17.96
2019-02-23T02:50:25.137Z,17.95
2019-02-23T02:51:18.297Z,17.95
2019-02-23T02:52:18.774Z,17.94
2019-02-23T02:53:18.491Z,17.94
2019-02-23T02:54:18.556Z,17.94
2019-02-23T02:55:18.914Z,17.94
2019-02-23T02:56:19.190Z,17.94
2019-02-23T02:57:18.476Z,17.93
2019-02-23T02:58:18.756Z,17.93
2019-02-23T02:59:18.541Z,17.92
2019-02-23T03:00:18.625Z,17.92
2019-02-23T03:01:18.453Z,17.93
2019-02-23T03:02:18.827Z,17.93
2019-02-23T03:03:18.144Z,17.93
2019-02-23T03:04:18.769Z,17.92
2019-02-23T03:05:18.862Z,17.92
2019-02-23T03:06:18.934Z,17.92
2019-02-23T03:07:18.737Z,17.92
2019-02-23T03:08:18.701Z,17.91
2019-02-23T03:09:18.300Z,17.9
2019-02-23T03:10:18.987Z,17.9
2019-02-23T03:11:18.585Z,17.91
2019-02-23T03:12:18.779Z,17.9
2019-02-23T03:13:18.906Z,17.9
2019-02-23T03:14:18.281Z,17.89
2019-02-23T03:15:18.670Z,17.88
2019-02-23T03:16:18.449Z,17.89
2019-02-23T03:17:18.238Z,17.89
2019-02-23T03:18:18.294Z,17.87
2019-02-23T03:19:18.223Z,17.87
2019-02-23T03:20:18.250Z,17.88
2019-02-23T03:21:18.605Z,17.86
2019-02-23T03:22:20.081Z,17.86
2019-02-23T03:23:18.228Z,17.86
2019-02-23T03:24:18.312Z,17.86
2019-02-23T03:25:18.383Z,17.86
2019-02-23T03:26:20.270Z,17.86
2019-02-23T03:27:19.163Z,17.85
2019-02-23T03:28:18.767Z,17.85
2019-02-23T03:29:18.385Z,17.85
2019-02-23T03:30:18.954Z,17.84
2019-02-23T03:31:18.399Z,17.84
2019-02-23T03:32:18.317Z,17.84
2019-02-23T03:33:18.557Z,17.85
2019-02-23T03:34:18.386Z,17.83
2019-02-23T03:35:19.053Z,17.84
2019-02-23T03:36:18.165Z,17.83
2019-02-23T03:37:18.398Z,17.82
2019-02-23T03:38:18.683Z,17.82
2019-02-23T03:39:18.450Z,17.82
2019-02-23T03:40:18.565Z,17.82
2019-02-23T03:41:18.371Z,17.82
2019-02-23T03:42:18.608Z,17.81
2019-02-23T03:43:18.579Z,17.81
2019-02-23T03:44:18.215Z,17.81
2019-02-23T03:45:18.505Z,17.8
2019-02-23T03:46:19.016Z,17.8
2019-02-23T03:47:18.591Z,17.79
2019-02-23T03:48:18.333Z,17.79
2019-02-23T03:49:19.220Z,17.79
2019-02-23T03:50:18.521Z,17.79
2019-02-23T03:51:18.580Z,17.78
2019-02-23T03:52:19.334Z,17.79
2019-02-23T03:53:18.288Z,17.79
2019-02-23T03:54:18.779Z,17.79
2019-02-23T03:55:18.886Z,17.78
2019-02-23T03:56:18.451Z,17.78
2019-02-23T03:57:18.403Z,17.78
2019-02-23T03:58:18.805Z,17.78
2019-02-23T03:59:18.192Z,17.77
2019-02-23T04:00:18.329Z,17.77
2019-02-23T04:01:18.488Z,17.77
2019-02-23T04:02:18.883Z,17.77
2019-02-23T04:03:20.289Z,17.76
2019-02-23T04:04:18.720Z,17.76
2019-02-23T04:05:18.444Z,17.76
2019-02-23T04:06:18.294Z,17.75
2019-02-23T04:07:19.273Z,17.75
2019-02-23T04:08:18.960Z,17.75
2019-02-23T04:09:18.382Z,17.75
2019-02-23T04:10:20.096Z,17.74
2019-02-23T04:11:18.327Z,17.75
2019-02-23T04:12:19.009Z,17.75
2019-02-23T04:13:20.295Z,17.75
2019-02-23T04:14:18.695Z,17.74
2019-02-23T04:15:18.895Z,17.74
2019-02-23T04:16:18.252Z,17.73
2019-02-23T04:17:18.744Z,17.73
2019-02-23T04:18:18.654Z,17.73
2019-02-23T04:19:18.557Z,17.73
2019-02-23T04:20:18.406Z,17.73
2019-02-23T04:21:18.320Z,17.72
2019-02-23T04:22:18.860Z,17.73
2019-02-23T04:23:20.244Z,17.73
2019-02-23T04:24:18.455Z,17.72
2019-02-23T04:25:18.658Z,17.73
2019-02-23T04:26:18.443Z,17.72
2019-02-23T04:27:18.373Z,17.71
2019-02-23T04:28:18.621Z,17.71
2019-02-23T04:29:19.416Z,17.71
2019-02-23T04:30:18.338Z,17.7
2019-02-23T04:31:18.631Z,17.71
2019-02-23T04:32:18.727Z,17.7
2019-02-23T04:33:20.145Z,17.7
2019-02-23T04:34:18.639Z,17.69
2019-02-23T04:35:18.423Z,17.69
2019-02-23T04:36:18.379Z,17.69
2019-02-23T04:37:18.480Z,17.69
2019-02-23T04:38:18.993Z,17.69
2019-02-23T04:39:18.668Z,17.69
2019-02-23T04:40:18.506Z,17.69
2019-02-23T04:41:18.692Z,17.69
2019-02-23T04:42:18.379Z,17.69
2019-02-23T04:43:18.982Z,17.7
2019-02-23T04:44:18.573Z,17.7
2019-02-23T04:45:18.444Z,17.7
2019-02-23T04:46:18.836Z,17.71
2019-02-23T04:47:18.172Z,17.71
2019-02-23T04:48:18.495Z,17.72
2019-02-23T04:49:18.731Z,17.72
2019-02-23T04:50:19.515Z,17.73
2019-02-23T04:51:19.195Z,17.73
2019-02-23T04:52:18.796Z,17.74
2019-02-23T04:53:18.270Z,17.76
2019-02-23T04:54:18.612Z,17.76
2019-02-23T04:55:18.576Z,17.78
2019-02-23T04:56:20.156Z,17.78
2019-02-23T04:57:18.402Z,17.79
2019-02-23T04:58:20.019Z,17.79
2019-02-23T04:59:18.532Z,17.79
2019-02-23T05:00:18.512Z,17.81
2019-02-23T05:01:18.520Z,17.83
2019-02-23T05:02:18.864Z,17.85
2019-02-23T05:03:19.229Z,17.87
2019-02-23T05:04:19.970Z,17.89
2019-02-23T05:05:18.663Z,17.91
2019-02-23T05:06:18.493Z,17.92
2019-02-23T05:07:18.315Z,17.94
2019-02-23T05:08:18.636Z,17.96
2019-02-23T05:09:18.906Z,17.98
2019-02-23T05:10:18.577Z,17.98
2019-02-23T05:11:18.458Z,18
2019-02-23T05:12:18.453Z,18.03
2019-02-23T05:13:18.318Z,18.04
2019-02-23T05:14:18.827Z,18.06
2019-02-23T05:15:18.362Z,18.07
2019-02-23T05:16:18.524Z,18.1
2019-02-23T05:17:18.834Z,18.11
2019-02-23T05:18:18.572Z,18.13
2019-02-23T05:19:18.665Z,18.15
2019-02-23T05:20:18.830Z,18.17
2019-02-23T05:21:27.247Z,18.18
2019-02-23T05:22:18.387Z,18.21
2019-02-23T05:23:18.774Z,18.22
2019-02-23T05:24:18.696Z,18.23
2019-02-23T05:25:18.268Z,18.25
2019-02-23T05:26:18.721Z,18.26
2019-02-23T05:27:18.221Z,18.28
2019-02-23T05:28:18.958Z,18.29
2019-02-23T05:29:18.100Z,18.3
2019-02-23T05:30:18.516Z,18.33
2019-02-23T05:31:18.383Z,18.34
2019-02-23T05:32:18.334Z,18.35
2019-02-23T05:33:19.060Z,18.37
2019-02-23T05:34:18.184Z,18.37
2019-02-23T05:35:18.468Z,18.4
2019-02-23T05:36:18.416Z,18.41
2019-02-23T05:37:18.673Z,18.41
2019-02-23T05:38:18.186Z,18.42
2019-02-23T05:39:18.419Z,18.45
2019-02-23T05:40:18.566Z,18.46
2019-02-23T05:41:18.229Z,18.48
2019-02-23T05:42:18.596Z,18.49
2019-02-23T05:43:18.530Z,18.5
2019-02-23T05:44:18.329Z,18.51
2019-02-23T05:45:18.769Z,18.53
2019-02-23T05:46:18.603Z,18.54
2019-02-23T05:47:18.668Z,18.54
2019-02-23T05:48:18.524Z,18.56
2019-02-23T05:49:18.649Z,18.57
2019-02-23T05:50:18.336Z,18.59
2019-02-23T05:51:18.413Z,18.6
2019-02-23T05:52:18.260Z,18.6
2019-02-23T05:53:18.334Z,18.62
2019-02-23T05:54:18.444Z,18.63
2019-02-23T05:55:20.113Z,18.65
2019-02-23T05:56:18.437Z,18.66
2019-02-23T05:57:18.520Z,18.66
2019-02-23T05:58:18.138Z,18.68
2019-02-23T05:59:18.567Z,18.69
2019-02-23T06:00:18.452Z,18.71
2019-02-23T06:01:18.633Z,18.71
2019-02-23T06:02:18.399Z,18.72
2019-02-23T06:03:20.004Z,18.73
2019-02-23T06:04:20.037Z,18.74
2019-02-23T06:05:18.795Z,18.75
2019-02-23T06:06:18.588Z,18.77
2019-02-23T06:07:18.429Z,18.78
2019-02-23T06:08:18.277Z,18.78
2019-02-23T06:09:18.910Z,18.79
2019-02-23T06:10:18.641Z,18.8
2019-02-23T06:11:18.405Z,18.81
2019-02-23T06:12:18.440Z,18.83
2019-02-23T06:13:18.211Z,18.84
2019-02-23T06:14:18.468Z,18.84
2019-02-23T06:15:18.154Z,18.85
2019-02-23T06:16:19.269Z,18.85
2019-02-23T06:17:19.082Z,18.88
2019-02-23T06:18:18.306Z,18.89
2019-02-23T06:19:18.503Z,18.9
2019-02-23T06:20:19.013Z,18.9
2019-02-23T06:21:18.471Z,18.91
2019-02-23T06:22:18.814Z,18.92
2019-02-23T06:23:20.211Z,18.93
2019-02-23T06:24:18.152Z,18.93
2019-02-23T06:25:18.303Z,18.93
2019-02-23T06:26:18.164Z,18.94
2019-02-23T06:27:18.178Z,18.95
2019-02-23T06:28:18.060Z,18.96
2019-02-23T06:29:18.246Z,18.96
2019-02-23T06:30:18.787Z,18.98
2019-02-23T06:31:19.175Z,18.99
2019-02-23T06:32:18.783Z,19
2019-02-23T06:33:18.490Z,19
2019-02-23T06:34:18.917Z,19.01
2019-02-23T06:35:18.969Z,19.02
2019-02-23T06:36:18.523Z,19.02
2019-02-23T06:37:18.470Z,19.03
2019-02-23T06:38:19.674Z,19.03
2019-02-23T06:39:18.513Z,19.03
2019-02-23T06:40:18.548Z,19.03
2019-02-23T06:41:18.935Z,19.04
2019-02-23T06:42:18.231Z,19.05
2019-02-23T06:43:18.437Z,19.05
2019-02-23T06:44:18.340Z,19.06
2019-02-23T06:45:18.302Z,19.06
2019-02-23T06:46:18.597Z,19.06
2019-02-23T06:47:18.369Z,19.09
2019-02-23T06:48:20.449Z,19.08
2019-02-23T06:49:18.461Z,19.08
2019-02-23T06:50:18.203Z,19.09
2019-02-23T06:51:18.891Z,19.09
2019-02-23T06:52:18.408Z,19.09
2019-02-23T06:53:18.521Z,19.09
2019-02-23T06:54:18.486Z,19.1
2019-02-23T06:55:18.747Z,19.1
2019-02-23T06:56:18.467Z,19.11
2019-02-23T06:57:18.753Z,19.11
2019-02-23T06:58:18.497Z,19.12
2019-02-23T06:59:18.313Z,19.12
2019-02-23T07:00:19.188Z,19.13
2019-02-23T07:01:18.128Z,19.13
2019-02-23T07:02:18.455Z,19.14
2019-02-23T07:03:18.519Z,19.14
2019-02-23T07:04:18.367Z,19.13
2019-02-23T07:05:18.773Z,19.14
2019-02-23T07:06:19.029Z,19.14
2019-02-23T07:07:18.764Z,19.14
2019-02-23T07:08:18.711Z,19.15
2019-02-23T07:09:18.541Z,19.15
2019-02-23T07:10:18.358Z,19.15
2019-02-23T07:11:18.271Z,19.15
2019-02-23T07:12:18.458Z,19.15
2019-02-23T07:13:18.866Z,19.15
2019-02-23T07:14:18.266Z,19.15
2019-02-23T07:15:18.256Z,19.15
2019-02-23T07:16:18.721Z,19.15
2019-02-23T07:17:18.741Z,19.15
2019-02-23T07:18:18.247Z,19.16
2019-02-23T07:19:18.372Z,19.15
2019-02-23T07:20:18.407Z,19.15
2019-02-23T07:21:19.101Z,19.16
2019-02-23T07:22:19.065Z,19.16
2019-02-23T07:23:18.922Z,19.16
2019-02-23T07:24:18.559Z,19.16
2019-02-23T07:25:18.878Z,19.16
2019-02-23T07:26:18.295Z,19.16
2019-02-23T07:27:18.449Z,19.16
2019-02-23T07:28:18.592Z,19.16
2019-02-23T07:29:18.768Z,19.16
2019-02-23T07:30:18.159Z,19.16
2019-02-23T07:31:18.355Z,19.16
2019-02-23T07:32:18.413Z,19.17
2019-02-23T07:33:33.579Z,19.18
2019-02-23T07:34:18.886Z,19.18
2019-02-23T07:35:18.276Z,19.18
2019-02-23T07:36:18.306Z,19.18
2019-02-23T07:37:18.351Z,19.17
2019-02-23T07:38:18.429Z,19.17
2019-02-23T07:39:18.299Z,19.17
2019-02-23T07:40:18.341Z,19.18
2019-02-23T07:41:18.365Z,19.19
2019-02-23T07:42:18.422Z,19.18
2019-02-23T07:43:19.035Z,19.18
2019-02-23T07:44:18.255Z,19.19
2019-02-23T07:45:18.582Z,19.19
2019-02-23T07:46:18.415Z,19.19
2019-02-23T07:47:18.921Z,19.19
2019-02-23T07:48:19.180Z,19.19
2019-02-23T07:49:19.133Z,19.21
2019-02-23T07:50:18.602Z,19.2
2019-02-23T07:51:18.342Z,19.2
2019-02-23T07:52:27.011Z,19.2
2019-02-23T07:53:18.544Z,19.2
2019-02-23T07:54:18.237Z,19.21
2019-02-23T07:55:18.343Z,19.21
2019-02-23T07:56:18.335Z,19.21
2019-02-23T07:57:18.254Z,19.21
2019-02-23T07:58:18.112Z,19.21
2019-02-23T07:59:18.592Z,19.21
2019-02-23T08:00:18.325Z,19.21
2019-02-23T08:01:18.412Z,19.21
2019-02-23T08:02:18.317Z,19.21
2019-02-23T08:03:18.432Z,19.21
2019-02-23T08:04:18.916Z,19.22
2019-02-23T08:05:20.188Z,19.22
2019-02-23T08:06:19.669Z,19.21
2019-02-23T08:07:18.837Z,19.21
2019-02-23T08:08:19.214Z,19.22
2019-02-23T08:09:19.012Z,19.22
2019-02-23T08:10:18.174Z,19.22
2019-02-23T08:11:20.225Z,19.22
2019-02-23T08:12:18.060Z,19.23
2019-02-23T08:13:18.678Z,19.23
2019-02-23T08:14:18.882Z,19.24
2019-02-23T08:15:18.579Z,19.23
2019-02-23T08:16:18.378Z,19.24
2019-02-23T08:17:18.273Z,19.24
2019-02-23T08:18:18.542Z,19.25
2019-02-23T08:19:18.470Z,19.25
2019-02-23T08:20:18.190Z,19.25
2019-02-23T08:21:18.399Z,19.25
2019-02-23T08:22:18.735Z,19.25
2019-02-23T08:23:18.319Z,19.25
2019-02-23T08:24:18.467Z,19.25
2019-02-23T08:25:18.941Z,19.25
2019-02-23T08:26:18.836Z,19.26
2019-02-23T08:27:18.385Z,19.26
2019-02-23T08:28:18.652Z,19.26
2019-02-23T08:29:18.205Z,19.26
2019-02-23T08:30:18.329Z,19.26
2019-02-23T08:31:18.428Z,19.26
2019-02-23T08:32:18.658Z,19.27
2019-02-23T08:33:18.751Z,19.27
2019-02-23T08:34:18.415Z,19.27
2019-02-23T08:35:20.056Z,19.27
2019-02-23T08:36:18.645Z,19.27
2019-02-23T08:37:18.303Z,19.27
2019-02-23T08:38:19.041Z,19.27
2019-02-23T08:39:18.464Z,19.28
2019-02-23T08:40:18.430Z,19.27
2019-02-23T08:41:18.680Z,19.27
2019-02-23T08:42:18.394Z,19.28
2019-02-23T08:43:21.045Z,19.27
2019-02-23T08:44:18.712Z,19.27
2019-02-23T08:45:18.282Z,19.28
2019-02-23T08:46:18.438Z,19.29
2019-02-23T08:47:19.635Z,19.28
2019-02-23T08:48:18.423Z,19.3
2019-02-23T08:49:18.694Z,19.3
2019-02-23T08:50:18.262Z,19.3
2019-02-23T08:51:18.972Z,19.3
2019-02-23T08:52:18.263Z,19.3
2019-02-23T08:53:18.567Z,19.3
2019-02-23T08:54:18.102Z,19.3
2019-02-23T08:55:18.497Z,19.3
2019-02-23T08:56:18.358Z,19.3
2019-02-23T08:57:18.705Z,19.32
2019-02-23T08:58:18.400Z,19.33
2019-02-23T08:59:18.342Z,19.36
2019-02-23T09:00:20.014Z,19.37
2019-02-23T09:01:18.182Z,19.35
2019-02-23T09:02:18.276Z,19.35
2019-02-23T09:03:18.437Z,19.35
2019-02-23T09:04:18.523Z,19.35
2019-02-23T09:05:18.002Z,19.37
2019-02-23T09:06:18.373Z,19.4
2019-02-23T09:07:20.124Z,19.39
2019-02-23T09:08:19.064Z,19.39
2019-02-23T09:09:18.879Z,19.41
2019-02-23T09:10:18.630Z,19.41
2019-02-23T09:11:19.987Z,19.43
2019-02-23T09:12:18.374Z,19.44
2019-02-23T09:13:18.487Z,19.45
2019-02-23T09:14:18.393Z,19.45
2019-02-23T09:15:18.493Z,19.47
2019-02-23T09:16:18.192Z,19.48
2019-02-23T09:17:18.587Z,19.48
2019-02-23T09:18:18.332Z,19.49
2019-02-23T09:19:19.826Z,19.5
2019-02-23T09:20:29.883Z,19.51
2019-02-23T09:21:18.351Z,19.51
2019-02-23T09:22:18.672Z,19.51
2019-02-23T09:23:18.271Z,19.52
2019-02-23T09:24:18.482Z,19.53
2019-02-23T09:25:18.406Z,19.53
2019-02-23T09:26:18.473Z,19.56
2019-02-23T09:27:18.253Z,19.57
2019-02-23T09:28:18.720Z,19.57
2019-02-23T09:29:18.855Z,19.58
2019-02-23T09:30:19.091Z,19.6
2019-02-23T09:31:19.149Z,19.6
2019-02-23T09:32:18.321Z,19.61
2019-02-23T09:33:19.063Z,19.62
2019-02-23T09:34:18.156Z,19.63
2019-02-23T09:35:18.393Z,19.64
2019-02-23T09:36:18.295Z,19.65
2019-02-23T09:37:18.337Z,19.67
2019-02-23T09:38:18.474Z,19.67
2019-02-23T09:39:18.204Z,19.67
2019-02-23T09:40:19.625Z,19.68
2019-02-23T09:41:18.513Z,19.69
2019-02-23T09:42:18.324Z,19.69
2019-02-23T09:43:19.107Z,19.71
2019-02-23T09:44:18.566Z,19.73
2019-02-23T09:45:18.537Z,19.73
2019-02-23T09:46:18.036Z,19.72
2019-02-23T09:47:18.094Z,19.71
2019-02-23T09:48:18.641Z,19.71
2019-02-23T09:49:18.411Z,19.7
2019-02-23T09:50:18.723Z,19.74
2019-02-23T09:51:17.941Z,19.74
2019-02-23T09:52:18.016Z,19.73
2019-02-23T09:53:18.574Z,19.74
2019-02-23T09:54:18.168Z,19.73
2019-02-23T09:55:18.460Z,19.74
2019-02-23T09:56:18.362Z,19.73
2019-02-23T09:57:18.114Z,19.74
2019-02-23T09:58:19.259Z,19.74
2019-02-23T09:59:18.238Z,19.75
2019-02-23T10:00:18.100Z,19.76
2019-02-23T10:01:18.347Z,19.77
2019-02-23T10:02:18.837Z,19.77
2019-02-23T10:03:18.352Z,19.79
2019-02-23T10:04:18.215Z,19.79
2019-02-23T10:05:18.286Z,19.79
2019-02-23T10:06:18.780Z,19.79
2019-02-23T10:07:18.687Z,19.81
2019-02-23T10:08:18.461Z,19.81
2019-02-23T10:09:18.487Z,19.81
2019-02-23T10:10:18.233Z,19.81
2019-02-23T10:11:18.884Z,19.81
2019-02-23T10:12:18.422Z,19.79
2019-02-23T10:13:18.929Z,19.8
2019-02-23T10:14:18.197Z,19.8
2019-02-23T10:15:18.654Z,19.79
2019-02-23T10:16:18.766Z,19.8
2019-02-23T10:17:19.083Z,19.78
2019-02-23T10:18:18.110Z,19.79
2019-02-23T10:19:18.481Z,19.79
2019-02-23T10:20:18.448Z,19.78
2019-02-23T10:21:19.224Z,19.79
2019-02-23T10:22:18.689Z,19.79
2019-02-23T10:23:22.780Z,19.81
2019-02-23T10:24:18.193Z,19.79
2019-02-23T10:25:18.323Z,19.79
2019-02-23T10:26:18.125Z,19.79
2019-02-23T10:27:18.609Z,19.81
2019-02-23T10:28:18.277Z,19.8
2019-02-23T10:29:18.327Z,19.81
2019-02-23T10:30:18.544Z,19.8
2019-02-23T10:31:18.668Z,19.79
2019-02-23T10:32:18.371Z,19.78
2019-02-23T10:33:18.246Z,19.77
2019-02-23T10:34:18.579Z,19.77
2019-02-23T10:35:19.105Z,19.76
2019-02-23T10:36:20.139Z,19.76
2019-02-23T10:37:18.485Z,19.75
2019-02-23T10:38:18.326Z,19.75
2019-02-23T10:39:18.347Z,19.75
2019-02-23T10:40:18.086Z,19.74
2019-02-23T10:41:18.262Z,19.73
2019-02-23T10:42:18.508Z,19.72
2019-02-23T10:43:18.353Z,19.72
2019-02-23T10:44:18.472Z,19.72
2019-02-23T10:45:18.632Z,19.71
2019-02-23T10:46:18.053Z,19.71
2019-02-23T10:47:18.204Z,19.7
2019-02-23T10:48:18.617Z,19.69
2019-02-23T10:49:18.117Z,19.69
2019-02-23T10:50:18.711Z,19.68
2019-02-23T10:51:18.798Z,19.68
2019-02-23T10:52:18.475Z,19.68
2019-02-23T10:53:18.272Z,19.67
2019-02-23T10:54:18.262Z,19.67
2019-02-23T10:55:18.175Z,19.67
2019-02-23T10:56:18.197Z,19.66
2019-02-23T10:57:19.656Z,19.66
2019-02-23T10:58:18.228Z,19.65
2019-02-23T10:59:18.252Z,19.65
2019-02-23T11:00:18.118Z,19.64
2019-02-23T11:01:18.995Z,19.64
2019-02-23T11:02:18.268Z,19.64
2019-02-23T11:03:18.456Z,19.63
2019-02-23T11:04:18.410Z,19.63
2019-02-23T11:05:18.678Z,19.63
2019-02-23T11:06:18.360Z,19.63
2019-02-23T11:07:20.041Z,19.62
2019-02-23T11:08:18.229Z,19.62
2019-02-23T11:09:18.470Z,19.61
2019-02-23T11:10:18.310Z,19.6
2019-02-23T11:11:17.914Z,19.6
2019-02-23T11:12:18.010Z,19.59
2019-02-23T11:13:18.442Z,19.6
2019-02-23T11:14:18.265Z,19.58
2019-02-23T11:15:18.239Z,19.57
2019-02-23T11:16:18.029Z,19.57
2019-02-23T11:17:18.476Z,19.57
2019-02-23T11:18:19.271Z,19.57
2019-02-23T11:19:18.692Z,19.56
2019-02-23T11:20:18.505Z,19.57
2019-02-23T11:21:18.905Z,19.57
2019-02-23T11:22:18.173Z,19.56
2019-02-23T11:23:18.093Z,19.57
2019-02-23T11:24:18.652Z,19.56
2019-02-23T11:25:18.352Z,19.56
2019-02-23T11:26:18.568Z,19.55
2019-02-23T11:27:18.131Z,19.55
2019-02-23T11:28:18.054Z,19.55
2019-02-23T11:29:18.138Z,19.54
2019-02-23T11:30:18.537Z,19.56
2019-02-23T11:31:18.420Z,19.55
2019-02-23T11:32:18.278Z,19.54
2019-02-23T11:33:18.612Z,19.55
2019-02-23T11:34:18.281Z,19.54
2019-02-23T11:35:18.248Z,19.52
2019-02-23T11:36:18.122Z,19.53
2019-02-23T11:37:18.359Z,19.52
2019-02-23T11:38:18.260Z,19.52
2019-02-23T11:39:18.121Z,19.52
2019-02-23T11:40:19.965Z,19.52
2019-02-23T11:41:18.439Z,19.53
2019-02-23T11:42:18.096Z,19.52
2019-02-23T11:43:18.174Z,19.53
2019-02-23T11:44:18.770Z,19.52
2019-02-23T11:45:18.205Z,19.53
2019-02-23T11:46:18.174Z,19.52
2019-02-23T11:47:18.316Z,19.51
2019-02-23T11:48:18.878Z,19.52
2019-02-23T11:49:18.384Z,19.51
2019-02-23T11:50:18.294Z,19.51
2019-02-23T11:51:18.264Z,19.53
2019-02-23T11:52:18.531Z,19.52
2019-02-23T11:53:18.214Z,19.52
2019-02-23T11:54:18.419Z,19.53
2019-02-23T11:55:18.513Z,19.53
2019-02-23T11:56:18.132Z,19.53
2019-02-23T11:57:18.367Z,19.52
2019-02-23T11:58:20.091Z,19.53
2019-02-23T11:59:18.992Z,19.53
2019-02-23T12:00:19.021Z,19.53
2019-02-23T12:01:18.800Z,19.52
2019-02-23T12:02:18.792Z,19.52
2019-02-23T12:03:18.639Z,19.51
2019-02-23T12:04:18.039Z,19.52
2019-02-23T12:05:18.229Z,19.52
2019-02-23T12:06:18.480Z,19.52
2019-02-23T12:07:18.309Z,19.52
2019-02-23T12:08:18.308Z,19.52
2019-02-23T12:09:18.270Z,19.51
2019-02-23T12:10:19.064Z,19.51
2019-02-23T12:11:18.455Z,19.52
2019-02-23T12:12:18.856Z,19.51
2019-02-23T12:13:19.976Z,19.51
2019-02-23T12:14:18.689Z,19.51
2019-02-23T12:15:18.378Z,19.51
2019-02-23T12:16:18.241Z,19.51
2019-02-23T12:17:18.156Z,19.51
2019-02-23T12:18:18.142Z,19.51
2019-02-23T12:19:18.482Z,19.51
2019-02-23T12:20:18.497Z,19.51
2019-02-23T12:21:18.108Z,19.51
2019-02-23T12:22:18.425Z,19.51
2019-02-23T12:23:19.125Z,19.51
2019-02-23T12:24:18.001Z,19.51
2019-02-23T12:25:18.869Z,19.51
2019-02-23T12:26:19.925Z,19.51
2019-02-23T12:27:18.254Z,19.51
2019-02-23T12:28:18.477Z,19.51
2019-02-23T12:29:18.682Z,19.51
2019-02-23T12:30:19.013Z,19.51
2019-02-23T12:31:18.385Z,19.51
2019-02-23T12:32:18.295Z,19.51
2019-02-23T12:33:18.532Z,19.51
2019-02-23T12:34:18.137Z,19.51
2019-02-23T12:35:18.564Z,19.51
2019-02-23T12:36:18.114Z,19.51
2019-02-23T12:37:18.525Z,19.51
2019-02-23T12:38:18.199Z,19.51
2019-02-23T12:39:18.463Z,19.51
2019-02-23T12:40:18.279Z,19.5
2019-02-23T12:41:19.584Z,19.51
2019-02-23T12:42:18.491Z,19.51
2019-02-23T12:43:18.280Z,19.51
2019-02-23T12:44:18.968Z,19.52
2019-02-23T12:45:18.993Z,19.51
2019-02-23T12:46:17.987Z,19.5
2019-02-23T12:47:18.085Z,19.51
2019-02-23T12:48:18.327Z,19.53
2019-02-23T12:49:18.091Z,19.53
2019-02-23T12:50:18.245Z,19.52
2019-02-23T12:51:18.120Z,19.52
2019-02-23T12:52:18.367Z,19.51
2019-02-23T12:53:18.429Z,19.51
2019-02-23T12:54:19.914Z,19.51
2019-02-23T12:55:18.123Z,19.51